Terminal Aerodrome Forecast
Issued by NWS Jacksonville, FL

Home | Current Version | Previous Version | Text Only | Print | Product List | Glossary On
Versions: 1 2 3 4 5 6 7 8 9 10 11 12 13 14 15 16 17 18 19 20 21 22 23 24
000
FTUS42 KJAX 040753 AAB
TAFSSI
TAF AMD
KSSI 040753Z 0408/0506 26007KT P6SM BKN015 BKN100 OVC250
     FM041200 27008KT P6SM VCSH SCT020 BKN100 BKN200
     FM041400 28009KT P6SM SCT040 SCT150 BKN200
     FM041700 30010KT P6SM FEW050 SCT200=

USA.gov is the U.S. government's official web portal to all federal, state and local government web resources and services.